Time;durP1;ratioP1;P1;durP2;ratioP2;P2;SDS_P1;SDS_P2;PMS_P1;PMS_P2;Temp;Humidity;BMP_temperature;BMP_pressure;BME280_temperature;BME280_humidity;BME280_pressure;Samples;Min_cycle;Max_cycle;Signal;HPM_P1;HPM_P2
2022/09/26 00:01:24;;;;;;;3.53;1.60;;;;;;;;;;4974562;28;20489;-79
2022/09/26 00:03:57;;;;;;;2.88;1.50;;;;;;;;;;4982137;28;20409;-79
2022/09/26 00:06:23;;;;;;;3.47;1.67;;;;;;;;;;4995132;28;20074;-79
2022/09/26 00:08:49;;;;;;;3.55;1.50;;;;;;;;;;4990016;28;20042;-79
2022/09/26 00:11:41;;;;;;;4.78;1.83;;;;;;;;;;4983676;28;20038;-79
2022/09/26 00:14:27;;;;;;;4.60;2.20;;;;;;;;;;4960641;28;20099;-79
2022/09/26 00:16:54;;;;;;;3.53;1.60;;;;;;;;;;4980337;28;20042;-80
2022/09/26 00:19:19;;;;;;;2.80;1.40;;;;;;;;;;4992233;28;20125;-79
2022/09/26 00:21:45;;;;;;;2.90;1.60;;;;;;;;;;4992767;28;20046;-79
2022/09/26 00:24:10;;;;;;;3.03;1.60;;;;;;;;;;4981736;28;20034;-80
2022/09/26 00:26:37;;;;;;;4.13;1.70;;;;;;;;;;4976684;28;20033;-79
2022/09/26 00:29:06;;;;;;;2.95;1.55;;;;;;;;;;4980744;28;20058;-80
2022/09/26 00:31:34;;;;;;;3.60;1.88;;;;;;;;;;4973365;28;20069;-78
2022/09/26 00:34:00;;;;;;;4.85;1.70;;;;;;;;;;4982835;28;20112;-79
2022/09/26 00:36:26;;;;;;;3.35;1.58;;;;;;;;;;4974423;28;20050;-80
2022/09/26 00:38:51;;;;;;;3.58;1.48;;;;;;;;;;4973119;28;20048;-78
2022/09/26 00:41:17;;;;;;;3.45;1.90;;;;;;;;;;4982547;28;20030;-79
2022/09/26 00:43:45;;;;;;;3.90;1.92;;;;;;;;;;4980958;28;20026;-78
2022/09/26 00:46:44;;;;;;;3.65;1.73;;;;;;;;;;4984069;28;20121;-80
2022/09/26 00:49:24;;;;;;;3.00;1.52;;;;;;;;;;4918457;28;20125;-79
2022/09/26 00:52:01;;;;;;;3.58;1.77;;;;;;;;;;5006197;28;20068;-79
2022/09/26 00:54:28;;;;;;;4.45;1.90;;;;;;;;;;4988193;28;20037;-78
2022/09/26 00:56:56;;;;;;;3.17;1.50;;;;;;;;;;4981494;28;20096;-80
2022/09/26 00:59:35;;;;;;;3.40;1.80;;;;;;;;;;4979256;28;20036;-78
2022/09/26 01:02:01;;;;;;;3.60;1.88;;;;;;;;;;4975148;28;20041;-78
2022/09/26 01:04:28;;;;;;;4.13;1.92;;;;;;;;;;4981945;28;20058;-78
2022/09/26 01:06:58;;;;;;;3.85;1.77;;;;;;;;;;4974807;28;20037;-80
2022/09/26 01:09:25;;;;;;;4.60;1.80;;;;;;;;;;4994197;28;20046;-79
2022/09/26 01:11:52;;;;;;;3.50;1.85;;;;;;;;;;4991410;28;20532;-79
2022/09/26 01:14:19;;;;;;;5.80;2.33;;;;;;;;;;5004819;28;20041;-80
2022/09/26 01:16:47;;;;;;;4.40;2.13;;;;;;;;;;4968144;28;20080;-79
2022/09/26 01:19:33;;;;;;;4.05;2.13;;;;;;;;;;4977225;28;20112;-79
2022/09/26 01:22:39;;;;;;;3.80;1.90;;;;;;;;;;4988504;28;20096;-79
2022/09/26 01:25:30;;;;;;;3.60;1.92;;;;;;;;;;4984940;28;20045;-80
2022/09/26 01:28:39;;;;;;;3.28;1.90;;;;;;;;;;4989611;28;20038;-79
2022/09/26 01:31:19;;;;;;;3.35;1.73;;;;;;;;;;4956111;28;20038;-80
2022/09/26 01:34:00;;;;;;;4.28;1.92;;;;;;;;;;4981405;28;21156;-80
2022/09/26 01:36:38;;;;;;;3.78;1.95;;;;;;;;;;5004882;28;20041;-80
2022/09/26 01:39:18;;;;;;;3.90;1.73;;;;;;;;;;4976056;28;20505;-79
2022/09/26 01:41:59;;;;;;;3.75;1.92;;;;;;;;;;4991058;28;20036;-79
2022/09/26 01:44:24;;;;;;;3.72;1.67;;;;;;;;;;4989827;28;20568;-79
2022/09/26 01:47:08;;;;;;;4.43;2.10;;;;;;;;;;4989459;28;20123;-79
2022/09/26 01:49:43;;;;;;;3.08;1.42;;;;;;;;;;5007608;28;20034;-79
2022/09/26 01:52:12;;;;;;;3.13;1.73;;;;;;;;;;5005153;28;20045;-79
2022/09/26 01:54:44;;;;;;;3.50;1.90;;;;;;;;;;5004983;28;20121;-79
2022/09/26 01:57:18;;;;;;;4.82;1.80;;;;;;;;;;4976693;28;20393;-79
2022/09/26 01:59:52;;;;;;;2.92;1.60;;;;;;;;;;4992644;28;20108;-80
2022/09/26 02:02:20;;;;;;;4.55;1.77;;;;;;;;;;4994000;28;20513;-79
2022/09/26 02:04:49;;;;;;;3.10;1.63;;;;;;;;;;4977100;28;20049;-78
2022/09/26 02:07:17;;;;;;;3.67;1.88;;;;;;;;;;4976766;28;20119;-78
2022/09/26 02:09:46;;;;;;;4.07;1.75;;;;;;;;;;4977673;28;20034;-80
2022/09/26 02:12:16;;;;;;;4.00;1.70;;;;;;;;;;4996471;28;20033;-79
2022/09/26 02:14:42;;;;;;;5.93;1.92;;;;;;;;;;4978546;28;20060;-79
2022/09/26 02:17:13;;;;;;;3.58;1.70;;;;;;;;;;4975417;28;20361;-79
2022/09/26 02:19:59;;;;;;;3.72;1.52;;;;;;;;;;4982236;28;20055;-79
2022/09/26 02:22:27;;;;;;;4.03;1.73;;;;;;;;;;4966519;28;20026;-79
2022/09/26 02:24:53;;;;;;;4.80;2.00;;;;;;;;;;4983449;28;20406;-79
2022/09/26 02:27:19;;;;;;;3.67;1.63;;;;;;;;;;4978973;28;20037;-79
2022/09/26 02:29:44;;;;;;;3.53;1.70;;;;;;;;;;4984509;28;20099;-79
2022/09/26 02:32:14;;;;;;;3.85;1.88;;;;;;;;;;4978408;28;20039;-80
2022/09/26 02:34:41;;;;;;;3.20;1.70;;;;;;;;;;4980508;28;20026;-79
2022/09/26 02:37:07;;;;;;;2.85;1.65;;;;;;;;;;4977250;28;20045;-80
2022/09/26 02:39:33;;;;;;;5.20;1.60;;;;;;;;;;4980384;28;20040;-80
2022/09/26 02:41:58;;;;;;;3.90;1.63;;;;;;;;;;4985043;28;20030;-78
2022/09/26 02:44:33;;;;;;;3.45;1.73;;;;;;;;;;4993407;28;20042;-79
2022/09/26 02:47:19;;;;;;;3.00;1.70;;;;;;;;;;4990504;28;20038;-79
2022/09/26 02:50:07;;;;;;;4.53;1.95;;;;;;;;;;4983463;28;20034;-79
2022/09/26 02:53:03;;;;;;;3.30;1.70;;;;;;;;;;4977330;28;20058;-79
2022/09/26 02:56:10;;;;;;;3.13;1.63;;;;;;;;;;5012357;28;20030;-80
2022/09/26 02:58:58;;;;;;;4.78;1.60;;;;;;;;;;4978265;28;20033;-80
2022/09/26 03:01:30;;;;;;;3.80;1.80;;;;;;;;;;4992162;28;20482;-81
2022/09/26 03:04:05;;;;;;;4.07;1.50;;;;;;;;;;4981433;28;20146;-78
2022/09/26 03:06:37;;;;;;;2.92;1.42;;;;;;;;;;4974679;28;20112;-79
2022/09/26 03:09:03;;;;;;;4.00;1.55;;;;;;;;;;4983960;28;20042;-79
2022/09/26 03:11:29;;;;;;;3.40;1.60;;;;;;;;;;4980245;28;20061;-78
2022/09/26 03:13:55;;;;;;;3.42;1.67;;;;;;;;;;4984433;28;20080;-78
2022/09/26 03:16:22;;;;;;;4.28;1.80;;;;;;;;;;4979965;28;20488;-78
2022/09/26 03:18:53;;;;;;;3.70;1.88;;;;;;;;;;4969060;28;20034;-79
2022/09/26 03:21:19;;;;;;;3.55;1.40;;;;;;;;;;4973089;28;20077;-78
2022/09/26 03:23:45;;;;;;;3.42;1.90;;;;;;;;;;4993479;28;20057;-79
2022/09/26 03:26:13;;;;;;;5.63;1.95;;;;;;;;;;4979764;28;20121;-78
2022/09/26 03:28:41;;;;;;;5.75;2.13;;;;;;;;;;4983201;28;20033;-79
2022/09/26 03:31:07;;;;;;;4.68;1.70;;;;;;;;;;4982219;28;20664;-79
2022/09/26 03:33:33;;;;;;;4.80;1.80;;;;;;;;;;4975999;28;20113;-79
2022/09/26 03:35:58;;;;;;;4.35;1.70;;;;;;;;;;4972025;28;20030;-80
2022/09/26 03:38:25;;;;;;;3.17;1.70;;;;;;;;;;4995577;28;20088;-84
2022/09/26 03:40:52;;;;;;;3.05;1.58;;;;;;;;;;4976990;28;20405;-86
2022/09/26 03:43:17;;;;;;;3.22;1.70;;;;;;;;;;4976047;28;20037;-83
2022/09/26 03:45:43;;;;;;;3.13;1.80;;;;;;;;;;4973156;28;20359;-84
2022/09/26 03:48:08;;;;;;;3.95;1.70;;;;;;;;;;4974461;28;20041;-84
2022/09/26 03:50:34;;;;;;;3.58;1.77;;;;;;;;;;4970311;28;20042;-84
2022/09/26 03:53:00;;;;;;;3.17;1.70;;;;;;;;;;4993928;28;20042;-84
2022/09/26 03:55:39;;;;;;;4.47;1.83;;;;;;;;;;4986628;28;20536;-85
2022/09/26 03:58:05;;;;;;;3.08;1.73;;;;;;;;;;4975981;28;20030;-84
2022/09/26 04:00:30;;;;;;;3.90;2.15;;;;;;;;;;4980900;28;20042;-85
2022/09/26 04:03:01;;;;;;;3.42;1.80;;;;;;;;;;4978747;28;20066;-85
2022/09/26 04:05:29;;;;;;;4.25;2.05;;;;;;;;;;4976104;28;20034;-85
2022/09/26 04:07:54;;;;;;;3.92;1.98;;;;;;;;;;4976028;28;20050;-85
2022/09/26 04:10:21;;;;;;;3.55;1.85;;;;;;;;;;4978673;28;20481;-87
2022/09/26 04:12:47;;;;;;;3.88;1.85;;;;;;;;;;4996052;28;20030;-90
2022/09/26 04:15:16;;;;;;;5.45;1.80;;;;;;;;;;4971927;28;20100;-90
2022/09/26 04:17:41;;;;;;;6.07;2.00;;;;;;;;;;4967406;28;20200;-89
2022/09/26 04:20:08;;;;;;;3.83;2.13;;;;;;;;;;4989771;28;20395;-90
2022/09/26 04:22:34;;;;;;;4.30;2.00;;;;;;;;;;4964410;28;20036;-90
2022/09/26 04:24:59;;;;;;;5.38;2.03;;;;;;;;;;4955828;28;20490;-88
2022/09/26 04:27:27;;;;;;;5.60;2.08;;;;;;;;;;4970207;28;20128;-88
2022/09/26 04:29:52;;;;;;;;;;;;;;;;;;5011900;28;20034;-88
2022/09/26 04:32:18;;;;;;;5.55;2.22;;;;;;;;;;4987685;28;19925;-89
2022/09/26 04:34:43;;;;;;;4.72;2.03;;;;;;;;;;4971022;28;20034;-88
2022/09/26 04:37:30;;;;;;;4.25;2.33;;;;;;;;;;4972082;28;20489;-89
2022/09/26 04:39:56;;;;;;;3.42;2.08;;;;;;;;;;4982787;28;20488;-86
2022/09/26 04:42:23;;;;;;;4.53;2.63;;;;;;;;;;4980750;28;20034;-81
2022/09/26 04:44:49;;;;;;;6.65;2.80;;;;;;;;;;4978634;28;20542;-81
2022/09/26 04:47:15;;;;;;;6.90;2.88;;;;;;;;;;4982091;28;20114;-91
2022/09/26 04:49:41;;;;;;;7.40;3.20;;;;;;;;;;4981078;28;20061;-91
2022/09/26 04:52:07;;;;;;;5.03;2.90;;;;;;;;;;4972810;28;20026;-90
2022/09/26 04:54:36;;;;;;;3.55;2.15;;;;;;;;;;4974001;28;20045;-90
2022/09/26 04:57:03;;;;;;;5.20;2.40;;;;;;;;;;4991740;28;20386;-91
2022/09/26 04:59:28;;;;;;;4.72;2.55;;;;;;;;;;4982702;28;20033;-90
2022/09/26 05:01:55;;;;;;;6.38;3.10;;;;;;;;;;4982835;28;20037;-90
2022/09/26 05:04:21;;;;;;;4.63;2.60;;;;;;;;;;4972964;28;20515;-89
2022/09/26 05:06:46;;;;;;;5.38;2.40;;;;;;;;;;4971957;28;20030;-91
2022/09/26 05:09:11;;;;;;;4.30;2.47;;;;;;;;;;4971239;28;20049;-90
2022/09/26 05:11:37;;;;;;;4.97;2.75;;;;;;;;;;4992903;28;20121;-90
2022/09/26 05:14:07;;;;;;;5.95;2.97;;;;;;;;;;4972324;28;20048;-91
2022/09/26 05:16:33;;;;;;;5.63;3.03;;;;;;;;;;4973935;28;20777;-91
2022/09/26 05:18:58;;;;;;;5.78;3.03;;;;;;;;;;4975282;28;20065;-90
2022/09/26 05:21:24;;;;;;;4.60;2.88;;;;;;;;;;4971882;28;20068;-90
2022/09/26 05:26:41;;;;;;;3.85;2.42;;;;;;;;;;4988132;28;20041;-90
2022/09/26 05:29:08;;;;;;;5.60;3.10;;;;;;;;;;4966215;28;20397;-91
2022/09/26 05:31:36;;;;;;;6.97;3.08;;;;;;;;;;4969842;28;20068;-90
2022/09/26 05:34:06;;;;;;;5.43;3.05;;;;;;;;;;4973234;28;20461;-90
2022/09/26 05:36:32;;;;;;;6.40;2.95;;;;;;;;;;4976696;28;20489;-93
2022/09/26 05:38:57;;;;;;;5.32;3.10;;;;;;;;;;4976240;28;20042;-92
2022/09/26 05:41:22;;;;;;;5.40;3.15;;;;;;;;;;4977626;28;20105;-92
2022/09/26 05:43:50;;;;;;;5.25;2.85;;;;;;;;;;4971260;28;20109;-93
2022/09/26 05:46:16;;;;;;;5.55;2.88;;;;;;;;;;4976720;28;20058;-93
2022/09/26 05:48:41;;;;;;;4.70;2.80;;;;;;;;;;4975649;28;20482;-93
2022/09/26 05:51:14;;;;;;;4.50;2.70;;;;;;;;;;4971803;28;20026;-94
2022/09/26 05:53:44;;;;;;;5.63;3.22;;;;;;;;;;4965597;28;20496;-92
2022/09/26 05:56:11;;;;;;;4.70;2.85;;;;;;;;;;4988825;28;20042;-92
2022/09/26 05:58:38;;;;;;;5.22;2.72;;;;;;;;;;4979035;28;20133;-92
2022/09/26 06:01:05;;;;;;;;;;;;;;;;;;4982546;28;20495;-91
2022/09/26 06:03:33;;;;;;;5.10;2.70;;;;;;;;;;4972331;28;19913;-91
2022/09/26 06:06:09;;;;;;;4.50;2.90;;;;;;;;;;4992518;28;20508;-92
2022/09/26 06:08:36;;;;;;;3.92;2.53;;;;;;;;;;4974264;28;20116;-92
2022/09/26 06:11:09;;;;;;;6.15;2.60;;;;;;;;;;4952888;28;20041;-93
2022/09/26 06:13:35;;;;;;;4.35;2.55;;;;;;;;;;4949025;28;20037;-92
2022/09/26 06:16:06;;;;;;;5.00;2.83;;;;;;;;;;4962358;28;20038;-94
2022/09/26 06:18:35;;;;;;;8.18;2.70;;;;;;;;;;4972182;28;20030;-94
2022/09/26 06:21:05;;;;;;;5.80;2.85;;;;;;;;;;4959117;28;20041;-92
2022/09/26 06:23:31;;;;;;;5.72;2.95;;;;;;;;;;4977996;28;20030;-92
2022/09/26 06:25:57;;;;;;;5.32;2.65;;;;;;;;;;4967322;28;20125;-94
2022/09/26 06:28:24;;;;;;;5.18;2.80;;;;;;;;;;4963606;28;20038;-96
2022/09/26 06:30:49;;;;;;;4.15;2.67;;;;;;;;;;4970125;28;20110;-93
2022/09/26 06:33:16;;;;;;;5.80;3.40;;;;;;;;;;4974852;28;20587;-94
2022/09/26 06:35:41;;;;;;;5.90;2.63;;;;;;;;;;4955402;28;20489;-95
2022/09/26 06:38:06;;;;;;;4.35;2.38;;;;;;;;;;4948538;28;20046;-96
2022/09/26 06:40:35;;;;;;;5.72;2.80;;;;;;;;;;4953320;28;20043;-91
2022/09/26 06:43:01;;;;;;;5.88;2.88;;;;;;;;;;4981164;28;20034;-92
2022/09/26 06:45:27;;;;;;;6.13;3.05;;;;;;;;;;4972333;28;20121;-95
2022/09/26 06:47:53;;;;;;;6.10;2.88;;;;;;;;;;4960999;28;20176;-92
2022/09/26 06:50:31;;;;;;;5.47;2.80;;;;;;;;;;4959592;28;20033;-96
2022/09/26 06:53:01;;;;;;;5.70;2.80;;;;;;;;;;4968511;28;20041;-95
2022/09/26 06:55:27;;;;;;;5.05;2.78;;;;;;;;;;4958481;28;21610;-94
2022/09/26 06:57:52;;;;;;;4.60;2.60;;;;;;;;;;4974202;28;20129;-93
2022/09/26 07:00:18;;;;;;;4.90;2.78;;;;;;;;;;4963608;28;20069;-90
2022/09/26 07:03:00;;;;;;;5.45;2.60;;;;;;;;;;4970974;28;20214;-93
2022/09/26 07:05:25;;;;;;;4.65;2.65;;;;;;;;;;4970745;28;20043;-95
2022/09/26 07:07:53;;;;;;;5.47;2.60;;;;;;;;;;4971642;28;20049;-92
2022/09/26 07:10:19;;;;;;;6.38;3.67;;;;;;;;;;4973316;28;20038;-93
2022/09/26 07:12:46;;;;;;;5.15;2.70;;;;;;;;;;4963153;28;20038;-93
2022/09/26 07:15:32;;;;;;;4.80;2.22;;;;;;;;;;4976504;28;20038;-88
2022/09/26 07:18:01;;;;;;;4.47;2.53;;;;;;;;;;4961613;28;20026;-94
2022/09/26 07:20:33;;;;;;;4.95;2.47;;;;;;;;;;4959117;28;20038;-90
2022/09/26 07:23:07;;;;;;;4.93;2.10;;;;;;;;;;4962640;28;20031;-91
2022/09/26 07:25:33;;;;;;;4.47;2.15;;;;;;;;;;4949599;28;20050;-90
2022/09/26 07:27:59;;;;;;;4.45;2.20;;;;;;;;;;4965002;28;20517;-91
2022/09/26 07:30:25;;;;;;;4.82;2.33;;;;;;;;;;4960125;28;20034;-91
2022/09/26 07:32:50;;;;;;;5.07;2.30;;;;;;;;;;4964168;28;20034;-95
2022/09/26 07:35:18;;;;;;;4.30;2.30;;;;;;;;;;4958036;28;20038;-94
2022/09/26 07:37:45;;;;;;;4.85;1.88;;;;;;;;;;4973822;28;20506;-92
2022/09/26 07:40:10;;;;;;;4.20;2.03;;;;;;;;;;4965337;28;20034;-92
2022/09/26 07:42:37;;;;;;;4.65;1.90;;;;;;;;;;4964114;28;20044;-90
2022/09/26 07:45:04;;;;;;;3.97;1.73;;;;;;;;;;4954237;28;20046;-90
2022/09/26 07:50:16;;;;;;;4.30;1.80;;;;;;;;;;4976836;28;20085;-95
2022/09/26 07:52:43;;;;;;;4.93;1.55;;;;;;;;;;4939922;28;20058;-93
2022/09/26 07:55:10;;;;;;;3.63;1.67;;;;;;;;;;4963657;28;20054;-91
2022/09/26 07:57:35;;;;;;;4.20;1.63;;;;;;;;;;4959027;28;20096;-91
2022/09/26 08:00:11;;;;;;;4.90;1.85;;;;;;;;;;4961747;28;20285;-93
2022/09/26 08:02:39;;;;;;;3.60;1.60;;;;;;;;;;4978010;28;20096;-92
2022/09/26 08:05:04;;;;;;;;;;;;;;;;;;4960389;28;20042;-93
2022/09/26 08:07:34;;;;;;;2.90;1.45;;;;;;;;;;4966623;28;19961;-90
2022/09/26 08:10:01;;;;;;;3.13;1.40;;;;;;;;;;4957231;28;20076;-93
2022/09/26 08:12:28;;;;;;;3.85;1.35;;;;;;;;;;4963060;28;20042;-93
2022/09/26 08:14:55;;;;;;;2.88;1.60;;;;;;;;;;4957380;28;20038;-94
2022/09/26 08:17:21;;;;;;;3.25;1.63;;;;;;;;;;4940276;28;20644;-91
2022/09/26 08:19:46;;;;;;;3.58;1.73;;;;;;;;;;4972628;28;20066;-91
2022/09/26 08:22:12;;;;;;;3.92;1.70;;;;;;;;;;4957577;28;20498;-90
2022/09/26 08:24:37;;;;;;;3.35;1.70;;;;;;;;;;4955610;28;20030;-92
2022/09/26 08:27:04;;;;;;;4.35;2.00;;;;;;;;;;4957506;28;20113;-92
2022/09/26 08:29:32;;;;;;;4.38;1.80;;;;;;;;;;4960284;28;20482;-92
2022/09/26 08:32:01;;;;;;;3.00;1.52;;;;;;;;;;4944835;28;20078;-93
2022/09/26 08:34:30;;;;;;;3.17;1.60;;;;;;;;;;4951757;28;20038;-92
2022/09/26 08:36:56;;;;;;;3.45;1.83;;;;;;;;;;4958991;28;20030;-92
2022/09/26 08:39:22;;;;;;;5.15;1.73;;;;;;;;;;4967906;28;20101;-92
2022/09/26 08:42:17;;;;;;;3.47;1.65;;;;;;;;;;4974094;28;20038;-93
2022/09/26 08:48:26;;;;;;;3.25;1.55;;;;;;;;;;4958093;28;20524;-92
2022/09/26 08:51:11;;;;;;;3.22;1.40;;;;;;;;;;4957215;28;20038;-91
2022/09/26 08:53:50;;;;;;;3.53;1.42;;;;;;;;;;4989579;28;20042;-90
2022/09/26 08:56:22;;;;;;;4.13;0.90;;;;;;;;;;4970502;28;20040;-89
2022/09/26 08:58:51;;;;;;;2.78;0.82;;;;;;;;;;4950662;28;20034;-89
2022/09/26 09:01:27;;;;;;;2.60;0.65;;;;;;;;;;4971706;28;20033;-92
2022/09/26 09:03:57;;;;;;;2.08;0.60;;;;;;;;;;4961369;28;20461;-91
2022/09/26 09:06:26;;;;;;;1.45;0.50;;;;;;;;;;4955499;28;20096;-90
2022/09/26 09:08:55;;;;;;;2.30;0.50;;;;;;;;;;4973960;28;20393;-90
2022/09/26 09:11:50;;;;;;;3.38;0.88;;;;;;;;;;4967970;28;20050;-92
2022/09/26 09:14:44;;;;;;;1.45;0.47;;;;;;;;;;4975636;28;20222;-91
2022/09/26 09:17:20;;;;;;;2.47;0.60;;;;;;;;;;4959459;28;20401;-91
2022/09/26 09:20:04;;;;;;;2.30;0.40;;;;;;;;;;4952789;28;20042;-91
2022/09/26 09:22:40;;;;;;;1.80;0.50;;;;;;;;;;4976740;28;20116;-88
2022/09/26 09:25:16;;;;;;;1.58;0.40;;;;;;;;;;4966934;28;20092;-91
2022/09/26 09:28:05;;;;;;;1.48;0.43;;;;;;;;;;4990464;28;20398;-94
2022/09/26 09:30:52;;;;;;;1.90;0.50;;;;;;;;;;4963951;28;20128;-93
2022/09/26 09:33:40;;;;;;;1.67;0.45;;;;;;;;;;4961398;28;20433;-88
2022/09/26 09:36:29;;;;;;;1.60;0.50;;;;;;;;;;4967771;28;20261;-90
2022/09/26 09:38:57;;;;;;;1.10;0.50;;;;;;;;;;4976366;28;20035;-89
2022/09/26 09:41:23;;;;;;;;;;;;;;;;;;4957021;28;20675;-91
2022/09/26 09:43:54;;;;;;;2.43;0.60;;;;;;;;;;4945920;28;20281;-88
2022/09/26 09:46:39;;;;;;;2.55;0.70;;;;;;;;;;4953060;28;20529;-91
2022/09/26 09:49:08;;;;;;;1.67;0.60;;;;;;;;;;4960421;28;20098;-92
2022/09/26 09:51:56;;;;;;;1.83;0.73;;;;;;;;;;4975666;28;20534;-92
2022/09/26 09:54:39;;;;;;;2.00;0.63;;;;;;;;;;4926027;28;20448;-90
2022/09/26 09:57:26;;;;;;;1.38;0.55;;;;;;;;;;4966469;28;20746;-91
2022/09/26 10:00:07;;;;;;;1.45;0.60;;;;;;;;;;4987822;28;20048;-88
2022/09/26 10:03:02;;;;;;;1.80;0.80;;;;;;;;;;4989019;28;20342;-89
2022/09/26 10:05:50;;;;;;;3.00;0.75;;;;;;;;;;4951591;28;20049;-91
2022/09/26 10:08:39;;;;;;;1.38;0.68;;;;;;;;;;4982729;28;20066;-93
2022/09/26 10:11:20;;;;;;;3.17;0.90;;;;;;;;;;4977883;28;20049;-89
2022/09/26 10:13:47;;;;;;;1.23;0.60;;;;;;;;;;4975562;28;20041;-92
2022/09/26 10:16:14;;;;;;;1.90;0.70;;;;;;;;;;4971251;28;20627;-90
2022/09/26 10:19:02;;;;;;;1.67;0.60;;;;;;;;;;4966448;28;20034;-91
2022/09/26 10:21:39;;;;;;;1.98;0.60;;;;;;;;;;4967884;28;20037;-91
2022/09/26 10:24:07;;;;;;;2.43;0.70;;;;;;;;;;4974138;28;20149;-92
2022/09/26 10:26:36;;;;;;;;;;;;;;;;;;4976934;28;20034;-92
2022/09/26 10:29:22;;;;;;;1.73;0.60;;;;;;;;;;4967359;28;20343;-90
2022/09/26 10:31:54;;;;;;;1.23;0.52;;;;;;;;;;4982750;28;20581;-94
2022/09/26 10:34:33;;;;;;;2.00;0.70;;;;;;;;;;4985434;28;20116;-90
2022/09/26 10:37:20;;;;;;;2.13;0.80;;;;;;;;;;4984722;28;20042;-90
2022/09/26 10:42:40;;;;;;;2.28;0.70;;;;;;;;;;4994104;28;20391;-92
2022/09/26 10:45:14;;;;;;;2.30;0.70;;;;;;;;;;4982691;28;20038;-90
2022/09/26 10:47:42;;;;;;;1.00;0.47;;;;;;;;;;4975785;28;20037;-90
2022/09/26 10:50:38;;;;;;;;;;;;;;;;;;4992934;28;20034;-91
2022/09/26 10:53:07;;;;;;;1.48;0.63;;;;;;;;;;4981995;28;19920;-92
2022/09/26 10:56:07;;;;;;;1.20;0.40;;;;;;;;;;4967238;28;20038;-95
2022/09/26 10:58:38;;;;;;;1.05;0.47;;;;;;;;;;4995198;28;20030;-93
2022/09/26 11:01:06;;;;;;;1.98;0.52;;;;;;;;;;4991429;28;20065;-92
2022/09/26 11:03:33;;;;;;;;;;;;;;;;;;4993856;28;20045;-90
2022/09/26 11:05:58;;;;;;;1.45;0.55;;;;;;;;;;4977295;28;19918;-91
2022/09/26 11:08:29;;;;;;;1.33;0.50;;;;;;;;;;4980992;28;20054;-92
2022/09/26 11:11:10;;;;;;;1.83;0.47;;;;;;;;;;4958856;28;20097;-91
2022/09/26 11:14:18;;;;;;;1.95;0.70;;;;;;;;;;4950730;28;20490;-94
2022/09/26 11:16:43;;;;;;;2.70;0.68;;;;;;;;;;4958754;28;20084;-91
2022/09/26 11:19:15;;;;;;;4.78;0.68;;;;;;;;;;4975072;28;20038;-94
2022/09/26 11:22:04;;;;;;;1.17;0.43;;;;;;;;;;4966532;28;20042;-94
2022/09/26 11:24:41;;;;;;;1.90;0.85;;;;;;;;;;4970024;28;20041;-95
2022/09/26 11:27:30;;;;;;;2.72;0.60;;;;;;;;;;4948235;28;20085;-89
2022/09/26 11:30:10;;;;;;;1.33;0.57;;;;;;;;;;4959533;28;20045;-94
2022/09/26 11:32:41;;;;;;;2.17;0.65;;;;;;;;;;4946368;28;20049;-87
2022/09/26 11:35:25;;;;;;;1.02;0.43;;;;;;;;;;4959491;28;20026;-89
2022/09/26 11:38:04;;;;;;;1.88;0.80;;;;;;;;;;4987949;28;20045;-89
2022/09/26 11:40:51;;;;;;;2.53;0.68;;;;;;;;;;4940207;28;20541;-92
2022/09/26 11:43:25;;;;;;;1.55;0.77;;;;;;;;;;4953054;28;22435;-90
2022/09/26 11:45:53;;;;;;;1.77;0.60;;;;;;;;;;4964934;28;20194;-90
2022/09/26 11:48:37;;;;;;;3.55;0.60;;;;;;;;;;4973917;28;20038;-89
2022/09/26 11:51:33;;;;;;;2.13;0.70;;;;;;;;;;4991152;28;20026;-93
2022/09/26 11:54:27;;;;;;;1.75;0.60;;;;;;;;;;4886903;29;20730;-89
2022/09/26 11:57:13;;;;;;;2.13;0.60;;;;;;;;;;4910527;29;20040;-87
2022/09/26 11:59:51;;;;;;;2.10;0.65;;;;;;;;;;4914614;29;20665;-93
2022/09/26 12:02:45;;;;;;;2.00;0.70;;;;;;;;;;4908600;29;20443;-91
2022/09/26 12:05:59;;;;;;;1.95;0.70;;;;;;;;;;4888033;29;20527;-87
2022/09/26 12:08:34;;;;;;;1.73;0.40;;;;;;;;;;4849124;29;1103403;-93
2022/09/26 12:11:32;;;;;;;2.30;0.60;;;;;;;;;;4915234;29;20044;-92
2022/09/26 12:14:04;;;;;;;1.35;0.47;;;;;;;;;;4908977;28;20047;-92
2022/09/26 12:16:47;;;;;;;2.00;0.68;;;;;;;;;;4932763;28;20035;-93
2022/09/26 12:19:40;;;;;;;1.55;0.55;;;;;;;;;;4951458;28;20070;-94
2022/09/26 12:22:28;;;;;;;2.70;0.55;;;;;;;;;;4919963;28;20031;-93
2022/09/26 12:25:21;;;;;;;2.05;0.60;;;;;;;;;;4912913;28;20458;-91
2022/09/26 12:28:07;;;;;;;3.40;0.77;;;;;;;;;;4949030;28;20046;-91
2022/09/26 12:30:48;;;;;;;1.65;0.50;;;;;;;;;;4954284;28;20082;-88
2022/09/26 12:33:38;;;;;;;2.05;0.50;;;;;;;;;;4976526;28;20097;-91
2022/09/26 12:36:22;;;;;;;2.70;0.70;;;;;;;;;;4976298;28;20590;-88
2022/09/26 12:38:58;;;;;;;1.23;0.57;;;;;;;;;;4969688;28;20486;-92
2022/09/26 12:41:41;;;;;;;5.50;1.13;;;;;;;;;;4967788;28;20423;-89
2022/09/26 12:44:15;;;;;;;2.50;0.60;;;;;;;;;;4988249;28;20876;-87
2022/09/26 12:46:59;;;;;;;1.08;0.45;;;;;;;;;;4981031;28;20043;-93
2022/09/26 12:49:28;;;;;;;2.88;0.60;;;;;;;;;;4980348;28;20520;-94
2022/09/26 12:51:59;;;;;;;1.92;0.60;;;;;;;;;;4967056;28;20044;-91
2022/09/26 12:54:24;;;;;;;2.38;0.90;;;;;;;;;;4954283;28;20038;-93
2022/09/26 12:57:03;;;;;;;1.97;0.40;;;;;;;;;;4972672;28;20429;-87
2022/09/26 12:59:52;;;;;;;2.63;0.70;;;;;;;;;;4970133;28;20281;-87
2022/09/26 13:02:33;;;;;;;2.28;0.60;;;;;;;;;;4970973;28;20120;-88
2022/09/26 13:05:02;;;;;;;2.20;0.50;;;;;;;;;;4977368;28;20993;-89
2022/09/26 13:07:43;;;;;;;2.20;0.60;;;;;;;;;;4991576;28;20763;-89
2022/09/26 13:10:39;;;;;;;2.65;1.00;;;;;;;;;;4973183;28;20045;-89
2022/09/26 13:13:23;;;;;;;2.22;0.80;;;;;;;;;;4990726;28;20034;-89
2022/09/26 13:16:03;;;;;;;1.63;0.65;;;;;;;;;;5002883;28;20484;-91
2022/09/26 13:18:38;;;;;;;1.98;0.70;;;;;;;;;;4994037;28;20034;-91
2022/09/26 13:21:11;;;;;;;1.88;0.55;;;;;;;;;;4990154;28;20064;-89
2022/09/26 13:23:40;;;;;;;2.13;0.65;;;;;;;;;;4976948;28;20445;-90
2022/09/26 13:26:13;;;;;;;3.42;0.82;;;;;;;;;;4971156;28;20061;-89
2022/09/26 13:28:49;;;;;;;1.45;0.70;;;;;;;;;;4964250;28;20170;-89
2022/09/26 13:31:18;;;;;;;3.40;0.70;;;;;;;;;;4972368;28;20037;-92
2022/09/26 13:33:49;;;;;;;2.08;0.60;;;;;;;;;;4988302;28;20100;-93
2022/09/26 13:36:16;;;;;;;1.10;0.50;;;;;;;;;;4984830;28;20084;-90
2022/09/26 13:38:52;;;;;;;2.25;0.60;;;;;;;;;;4989601;28;20037;-91
2022/09/26 13:41:31;;;;;;;2.38;0.60;;;;;;;;;;4990860;28;20363;-94
2022/09/26 13:44:07;;;;;;;1.70;0.60;;;;;;;;;;4976293;28;20458;-92
2022/09/26 13:46:41;;;;;;;2.25;0.85;;;;;;;;;;4969090;28;20061;-92
2022/09/26 13:49:33;;;;;;;1.60;0.70;;;;;;;;;;4989813;28;20033;-89
2022/09/26 13:52:23;;;;;;;2.67;0.70;;;;;;;;;;5002543;28;20038;-93
2022/09/26 13:55:03;;;;;;;1.98;0.50;;;;;;;;;;4972671;28;20129;-91
2022/09/26 13:57:37;;;;;;;2.17;0.45;;;;;;;;;;4987192;28;20042;-92
2022/09/26 14:00:52;;;;;;;1.55;0.60;;;;;;;;;;4975927;28;20064;-90
2022/09/26 14:03:16;;;;;;;2.83;0.60;;;;;;;;;;5006591;28;20056;-89
2022/09/26 14:05:42;;;;;;;2.50;0.80;;;;;;;;;;4989869;28;20120;-94
2022/09/26 14:11:43;;;;;;;1.90;0.60;;;;;;;;;;5004345;28;20087;-93
2022/09/26 14:14:16;;;;;;;2.83;0.70;;;;;;;;;;4967515;28;20038;-91
2022/09/26 14:16:43;;;;;;;5.32;0.70;;;;;;;;;;5005115;28;20034;-91
2022/09/26 14:19:41;;;;;;;2.33;0.60;;;;;;;;;;4973867;28;20083;-89
2022/09/26 14:22:17;;;;;;;2.72;0.82;;;;;;;;;;4973316;28;20048;-92
2022/09/26 14:24:43;;;;;;;1.73;0.60;;;;;;;;;;4993552;28;20032;-88
2022/09/26 14:27:08;;;;;;;1.42;0.63;;;;;;;;;;4979986;28;20487;-91
2022/09/26 14:29:48;;;;;;;2.10;0.70;;;;;;;;;;4988722;28;20226;-94
2022/09/26 14:32:19;;;;;;;1.88;0.60;;;;;;;;;;4978415;28;20157;-91
2022/09/26 14:34:56;;;;;;;2.10;0.50;;;;;;;;;;4973198;28;20092;-92
2022/09/26 14:37:24;;;;;;;2.60;0.68;;;;;;;;;;4978669;28;20065;-93
2022/09/26 14:40:21;;;;;;;2.83;0.55;;;;;;;;;;4990355;28;20056;-91
2022/09/26 14:42:59;;;;;;;1.75;0.63;;;;;;;;;;4955052;28;20499;-92
2022/09/26 14:45:37;;;;;;;4.32;0.95;;;;;;;;;;4987859;28;20153;-91
2022/09/26 14:48:13;;;;;;;1.92;0.82;;;;;;;;;;4977580;28;20398;-92
2022/09/26 14:50:50;;;;;;;1.52;0.68;;;;;;;;;;4959679;28;20046;-90
2022/09/26 14:53:22;;;;;;;1.42;0.60;;;;;;;;;;4994797;28;20033;-91
2022/09/26 14:56:00;;;;;;;3.40;0.80;;;;;;;;;;4972436;28;20460;-91
2022/09/26 14:58:31;;;;;;;1.40;0.40;;;;;;;;;;4989487;28;20034;-90
2022/09/26 15:01:01;;;;;;;3.53;0.80;;;;;;;;;;4988800;28;20057;-89
2022/09/26 15:03:27;;;;;;;1.52;0.40;;;;;;;;;;4966843;28;20030;-89
2022/09/26 15:05:52;;;;;;;2.05;0.60;;;;;;;;;;4981012;28;20444;-94
2022/09/26 15:08:24;;;;;;;3.38;0.60;;;;;;;;;;4987592;28;20038;-92
2022/09/26 15:10:50;;;;;;;2.17;0.70;;;;;;;;;;4991844;28;20045;-92
2022/09/26 15:13:16;;;;;;;1.05;0.43;;;;;;;;;;4976865;28;20060;-93
2022/09/26 15:15:49;;;;;;;1.38;0.60;;;;;;;;;;5006457;28;20116;-95
2022/09/26 15:18:34;;;;;;;2.22;0.80;;;;;;;;;;4976579;28;20393;-91
2022/09/26 15:21:10;;;;;;;1.77;0.50;;;;;;;;;;5006308;28;20030;-90
2022/09/26 15:23:51;;;;;;;1.85;0.60;;;;;;;;;;4973360;28;20512;-82
2022/09/26 15:26:24;;;;;;;1.92;0.75;;;;;;;;;;5012357;28;20038;-87
2022/09/26 15:28:51;;;;;;;1.77;0.57;;;;;;;;;;4980932;28;20030;-88
2022/09/26 15:31:19;;;;;;;2.13;0.65;;;;;;;;;;4978034;28;20045;-86
2022/09/26 15:33:49;;;;;;;2.38;0.70;;;;;;;;;;4987732;28;20041;-86
2022/09/26 15:36:16;;;;;;;1.80;0.60;;;;;;;;;;4994699;28;20053;-87
2022/09/26 15:38:45;;;;;;;1.75;0.50;;;;;;;;;;4983838;28;20042;-86